sensor_id;sensor_type;location;lat;lon;timestamp;P1;durP1;ratioP1;P2;durP2;ratioP2
74808;SDS011;63338;39.544;2.596;2023-05-29T00:02:25;7.85;;;3.70;;
74808;SDS011;63338;39.544;2.596;2023-05-29T00:04:51;10.93;;;3.22;;
74808;SDS011;63338;39.544;2.596;2023-05-29T00:07:20;9.80;;;3.20;;
74808;SDS011;63338;39.544;2.596;2023-05-29T00:09:46;7.63;;;3.38;;
74808;SDS011;63338;39.544;2.596;2023-05-29T00:12:12;9.10;;;3.53;;
74808;SDS011;63338;39.544;2.596;2023-05-29T00:14:44;9.27;;;3.15;;
74808;SDS011;63338;39.544;2.596;2023-05-29T00:17:10;9.00;;;3.25;;
74808;SDS011;63338;39.544;2.596;2023-05-29T00:19:37;7.78;;;2.58;;
74808;SDS011;63338;39.544;2.596;2023-05-29T00:22:03;8.77;;;3.47;;
74808;SDS011;63338;39.544;2.596;2023-05-29T00:24:30;15.27;;;3.55;;
74808;SDS011;63338;39.544;2.596;2023-05-29T00:26:56;9.68;;;3.40;;
74808;SDS011;63338;39.544;2.596;2023-05-29T00:29:21;13.27;;;3.53;;
74808;SDS011;63338;39.544;2.596;2023-05-29T00:31:54;9.20;;;3.50;;
74808;SDS011;63338;39.544;2.596;2023-05-29T00:34:24;9.27;;;3.47;;
74808;SDS011;63338;39.544;2.596;2023-05-29T00:36:51;9.48;;;3.50;;
74808;SDS011;63338;39.544;2.596;2023-05-29T00:39:20;7.30;;;3.50;;
74808;SDS011;63338;39.544;2.596;2023-05-29T00:41:47;11.40;;;3.40;;
74808;SDS011;63338;39.544;2.596;2023-05-29T00:44:22;12.85;;;3.70;;
74808;SDS011;63338;39.544;2.596;2023-05-29T00:46:49;9.13;;;3.90;;
74808;SDS011;63338;39.544;2.596;2023-05-29T00:49:18;10.05;;;3.30;;
74808;SDS011;63338;39.544;2.596;2023-05-29T00:51:47;8.30;;;3.25;;
74808;SDS011;63338;39.544;2.596;2023-05-29T00:54:17;8.23;;;2.97;;
74808;SDS011;63338;39.544;2.596;2023-05-29T00:56:48;8.85;;;3.60;;
74808;SDS011;63338;39.544;2.596;2023-05-29T00:59:15;10.88;;;3.08;;
74808;SDS011;63338;39.544;2.596;2023-05-29T01:01:41;7.97;;;3.10;;
74808;SDS011;63338;39.544;2.596;2023-05-29T01:04:18;9.32;;;3.22;;
74808;SDS011;63338;39.544;2.596;2023-05-29T01:06:46;9.68;;;3.75;;
74808;SDS011;63338;39.544;2.596;2023-05-29T01:09:12;12.60;;;3.13;;
74808;SDS011;63338;39.544;2.596;2023-05-29T01:14:25;8.35;;;2.85;;
74808;SDS011;63338;39.544;2.596;2023-05-29T01:17:37;6.97;;;3.13;;
74808;SDS011;63338;39.544;2.596;2023-05-29T01:23:07;11.93;;;3.72;;
74808;SDS011;63338;39.544;2.596;2023-05-29T01:28:47;9.85;;;3.08;;
74808;SDS011;63338;39.544;2.596;2023-05-29T01:31:19;9.60;;;3.65;;
74808;SDS011;63338;39.544;2.596;2023-05-29T01:33:54;13.65;;;3.20;;
74808;SDS011;63338;39.544;2.596;2023-05-29T01:36:22;9.05;;;3.45;;
74808;SDS011;63338;39.544;2.596;2023-05-29T01:38:52;11.80;;;3.38;;
74808;SDS011;63338;39.544;2.596;2023-05-29T01:41:19;13.43;;;3.80;;
74808;SDS011;63338;39.544;2.596;2023-05-29T01:43:48;8.93;;;3.40;;
74808;SDS011;63338;39.544;2.596;2023-05-29T01:46:15;10.93;;;3.35;;
74808;SDS011;63338;39.544;2.596;2023-05-29T01:48:43;8.75;;;3.65;;
74808;SDS011;63338;39.544;2.596;2023-05-29T01:51:10;8.90;;;2.88;;
74808;SDS011;63338;39.544;2.596;2023-05-29T01:53:38;12.48;;;3.30;;
74808;SDS011;63338;39.544;2.596;2023-05-29T01:56:05;7.93;;;3.25;;
74808;SDS011;63338;39.544;2.596;2023-05-29T01:58:32;9.73;;;3.28;;
74808;SDS011;63338;39.544;2.596;2023-05-29T02:01:01;9.85;;;3.40;;
74808;SDS011;63338;39.544;2.596;2023-05-29T02:03:29;10.82;;;3.47;;
74808;SDS011;63338;39.544;2.596;2023-05-29T02:05:58;11.77;;;3.47;;
74808;SDS011;63338;39.544;2.596;2023-05-29T02:08:25;10.00;;;3.35;;
74808;SDS011;63338;39.544;2.596;2023-05-29T02:10:51;8.27;;;3.58;;
74808;SDS011;63338;39.544;2.596;2023-05-29T02:13:20;7.75;;;3.65;;
74808;SDS011;63338;39.544;2.596;2023-05-29T02:15:46;8.70;;;3.38;;
74808;SDS011;63338;39.544;2.596;2023-05-29T02:18:13;8.23;;;3.05;;
74808;SDS011;63338;39.544;2.596;2023-05-29T02:20:42;8.88;;;3.53;;
74808;SDS011;63338;39.544;2.596;2023-05-29T02:23:08;10.60;;;4.00;;
74808;SDS011;63338;39.544;2.596;2023-05-29T02:25:35;10.68;;;3.45;;
74808;SDS011;63338;39.544;2.596;2023-05-29T02:28:03;7.78;;;3.28;;
74808;SDS011;63338;39.544;2.596;2023-05-29T02:30:29;9.55;;;3.75;;
74808;SDS011;63338;39.544;2.596;2023-05-29T02:32:55;8.65;;;3.60;;
74808;SDS011;63338;39.544;2.596;2023-05-29T02:35:22;9.15;;;3.95;;
74808;SDS011;63338;39.544;2.596;2023-05-29T02:37:48;8.27;;;3.25;;
74808;SDS011;63338;39.544;2.596;2023-05-29T02:40:15;13.25;;;4.32;;
74808;SDS011;63338;39.544;2.596;2023-05-29T02:42:45;8.65;;;3.50;;
74808;SDS011;63338;39.544;2.596;2023-05-29T02:45:11;11.98;;;4.18;;
74808;SDS011;63338;39.544;2.596;2023-05-29T02:47:38;9.15;;;3.10;;
74808;SDS011;63338;39.544;2.596;2023-05-29T02:50:04;10.18;;;3.55;;
74808;SDS011;63338;39.544;2.596;2023-05-29T02:52:34;9.45;;;3.30;;
74808;SDS011;63338;39.544;2.596;2023-05-29T02:55:02;9.95;;;3.40;;
74808;SDS011;63338;39.544;2.596;2023-05-29T02:57:29;8.93;;;3.08;;
74808;SDS011;63338;39.544;2.596;2023-05-29T02:59:55;9.65;;;3.28;;
74808;SDS011;63338;39.544;2.596;2023-05-29T03:02:21;8.90;;;3.80;;
74808;SDS011;63338;39.544;2.596;2023-05-29T03:04:49;9.88;;;3.38;;
74808;SDS011;63338;39.544;2.596;2023-05-29T03:07:16;10.68;;;3.40;;
74808;SDS011;63338;39.544;2.596;2023-05-29T03:09:42;10.38;;;3.75;;
74808;SDS011;63338;39.544;2.596;2023-05-29T03:12:08;9.57;;;3.75;;
74808;SDS011;63338;39.544;2.596;2023-05-29T03:14:37;9.25;;;3.03;;
74808;SDS011;63338;39.544;2.596;2023-05-29T03:17:04;8.48;;;3.35;;
74808;SDS011;63338;39.544;2.596;2023-05-29T03:19:31;9.40;;;3.78;;
74808;SDS011;63338;39.544;2.596;2023-05-29T03:22:01;9.65;;;3.63;;
74808;SDS011;63338;39.544;2.596;2023-05-29T03:24:27;13.10;;;3.70;;
74808;SDS011;63338;39.544;2.596;2023-05-29T03:26:55;10.68;;;3.35;;
74808;SDS011;63338;39.544;2.596;2023-05-29T03:29:22;11.10;;;3.50;;
74808;SDS011;63338;39.544;2.596;2023-05-29T03:31:48;9.88;;;3.85;;
74808;SDS011;63338;39.544;2.596;2023-05-29T03:34:14;9.10;;;3.33;;
74808;SDS011;63338;39.544;2.596;2023-05-29T03:36:40;7.70;;;3.28;;
74808;SDS011;63338;39.544;2.596;2023-05-29T03:39:06;10.80;;;4.20;;
74808;SDS011;63338;39.544;2.596;2023-05-29T03:41:32;5.80;;;2.97;;
74808;SDS011;63338;39.544;2.596;2023-05-29T03:44:01;9.88;;;2.92;;
74808;SDS011;63338;39.544;2.596;2023-05-29T03:46:27;9.25;;;3.45;;
74808;SDS011;63338;39.544;2.596;2023-05-29T03:48:55;9.13;;;3.30;;
74808;SDS011;63338;39.544;2.596;2023-05-29T03:51:27;13.85;;;3.63;;
74808;SDS011;63338;39.544;2.596;2023-05-29T03:53:53;10.68;;;3.42;;
74808;SDS011;63338;39.544;2.596;2023-05-29T03:56:19;10.95;;;3.30;;
74808;SDS011;63338;39.544;2.596;2023-05-29T03:58:46;10.48;;;2.83;;
74808;SDS011;63338;39.544;2.596;2023-05-29T04:01:15;11.82;;;3.50;;
74808;SDS011;63338;39.544;2.596;2023-05-29T04:03:41;8.52;;;2.83;;
74808;SDS011;63338;39.544;2.596;2023-05-29T04:06:09;10.18;;;3.45;;
74808;SDS011;63338;39.544;2.596;2023-05-29T04:08:36;9.90;;;3.60;;
74808;SDS011;63338;39.544;2.596;2023-05-29T04:11:05;9.57;;;3.38;;
74808;SDS011;63338;39.544;2.596;2023-05-29T04:13:31;7.57;;;3.50;;
74808;SDS011;63338;39.544;2.596;2023-05-29T04:15:57;8.35;;;2.83;;
74808;SDS011;63338;39.544;2.596;2023-05-29T04:18:23;9.55;;;3.13;;
74808;SDS011;63338;39.544;2.596;2023-05-29T04:20:51;11.05;;;3.55;;
74808;SDS011;63338;39.544;2.596;2023-05-29T04:23:18;9.55;;;3.25;;
74808;SDS011;63338;39.544;2.596;2023-05-29T04:25:45;14.80;;;3.75;;
74808;SDS011;63338;39.544;2.596;2023-05-29T04:28:11;10.38;;;3.53;;
74808;SDS011;63338;39.544;2.596;2023-05-29T04:30:37;7.43;;;3.40;;
74808;SDS011;63338;39.544;2.596;2023-05-29T04:33:04;10.52;;;4.00;;
74808;SDS011;63338;39.544;2.596;2023-05-29T04:35:31;13.25;;;3.78;;
74808;SDS011;63338;39.544;2.596;2023-05-29T04:37:57;10.93;;;3.90;;
74808;SDS011;63338;39.544;2.596;2023-05-29T04:40:23;8.15;;;3.33;;
74808;SDS011;63338;39.544;2.596;2023-05-29T04:42:49;12.02;;;3.50;;
74808;SDS011;63338;39.544;2.596;2023-05-29T04:45:19;10.90;;;3.83;;
74808;SDS011;63338;39.544;2.596;2023-05-29T04:47:46;11.32;;;3.60;;
74808;SDS011;63338;39.544;2.596;2023-05-29T04:50:12;12.23;;;3.70;;
74808;SDS011;63338;39.544;2.596;2023-05-29T04:52:39;11.05;;;3.60;;
74808;SDS011;63338;39.544;2.596;2023-05-29T04:55:05;9.75;;;3.40;;
74808;SDS011;63338;39.544;2.596;2023-05-29T04:57:32;10.48;;;3.45;;
74808;SDS011;63338;39.544;2.596;2023-05-29T04:59:58;16.00;;;4.22;;
74808;SDS011;63338;39.544;2.596;2023-05-29T05:02:24;10.18;;;3.85;;
74808;SDS011;63338;39.544;2.596;2023-05-29T05:04:50;12.65;;;3.95;;
74808;SDS011;63338;39.544;2.596;2023-05-29T05:07:16;10.15;;;3.83;;
74808;SDS011;63338;39.544;2.596;2023-05-29T05:09:43;13.43;;;3.47;;
74808;SDS011;63338;39.544;2.596;2023-05-29T05:12:09;10.95;;;3.67;;
74808;SDS011;63338;39.544;2.596;2023-05-29T05:14:35;8.63;;;3.45;;
74808;SDS011;63338;39.544;2.596;2023-05-29T05:17:01;10.98;;;3.47;;
74808;SDS011;63338;39.544;2.596;2023-05-29T05:19:28;9.05;;;3.65;;
74808;SDS011;63338;39.544;2.596;2023-05-29T05:21:54;10.15;;;4.10;;
74808;SDS011;63338;39.544;2.596;2023-05-29T05:24:20;11.23;;;4.18;;
74808;SDS011;63338;39.544;2.596;2023-05-29T05:26:46;8.57;;;3.33;;
74808;SDS011;63338;39.544;2.596;2023-05-29T05:29:16;11.95;;;3.97;;
74808;SDS011;63338;39.544;2.596;2023-05-29T05:31:42;13.32;;;4.05;;
74808;SDS011;63338;39.544;2.596;2023-05-29T05:34:08;7.40;;;3.10;;
74808;SDS011;63338;39.544;2.596;2023-05-29T05:36:33;11.32;;;4.07;;
74808;SDS011;63338;39.544;2.596;2023-05-29T05:39:00;11.10;;;3.75;;
74808;SDS011;63338;39.544;2.596;2023-05-29T05:41:26;9.68;;;3.58;;
74808;SDS011;63338;39.544;2.596;2023-05-29T05:43:52;12.05;;;3.90;;
74808;SDS011;63338;39.544;2.596;2023-05-29T05:46:18;8.95;;;3.60;;
74808;SDS011;63338;39.544;2.596;2023-05-29T05:48:53;11.70;;;3.70;;
74808;SDS011;63338;39.544;2.596;2023-05-29T05:51:25;15.52;;;3.60;;
74808;SDS011;63338;39.544;2.596;2023-05-29T05:53:51;13.02;;;3.60;;
74808;SDS011;63338;39.544;2.596;2023-05-29T05:56:20;7.22;;;3.17;;
74808;SDS011;63338;39.544;2.596;2023-05-29T05:58:46;8.45;;;3.47;;
74808;SDS011;63338;39.544;2.596;2023-05-29T06:01:15;11.73;;;3.47;;
74808;SDS011;63338;39.544;2.596;2023-05-29T06:03:41;10.43;;;3.45;;
74808;SDS011;63338;39.544;2.596;2023-05-29T06:06:07;11.48;;;3.40;;
74808;SDS011;63338;39.544;2.596;2023-05-29T06:08:34;14.32;;;3.90;;
74808;SDS011;63338;39.544;2.596;2023-05-29T06:11:03;10.75;;;3.45;;
74808;SDS011;63338;39.544;2.596;2023-05-29T06:13:29;9.73;;;3.40;;
74808;SDS011;63338;39.544;2.596;2023-05-29T06:15:55;14.68;;;3.63;;
74808;SDS011;63338;39.544;2.596;2023-05-29T06:18:21;10.77;;;3.60;;
74808;SDS011;63338;39.544;2.596;2023-05-29T06:20:48;12.98;;;3.78;;
74808;SDS011;63338;39.544;2.596;2023-05-29T06:23:15;14.10;;;3.83;;
74808;SDS011;63338;39.544;2.596;2023-05-29T06:25:41;17.27;;;3.55;;
74808;SDS011;63338;39.544;2.596;2023-05-29T06:28:08;9.52;;;3.72;;
74808;SDS011;63338;39.544;2.596;2023-05-29T06:30:34;10.07;;;3.22;;
74808;SDS011;63338;39.544;2.596;2023-05-29T06:33:01;10.30;;;3.13;;
74808;SDS011;63338;39.544;2.596;2023-05-29T06:35:27;12.20;;;3.72;;
74808;SDS011;63338;39.544;2.596;2023-05-29T06:37:53;11.88;;;4.18;;
74808;SDS011;63338;39.544;2.596;2023-05-29T06:40:19;8.75;;;3.70;;
74808;SDS011;63338;39.544;2.596;2023-05-29T06:42:45;9.00;;;3.55;;
74808;SDS011;63338;39.544;2.596;2023-05-29T06:45:11;10.38;;;3.58;;
74808;SDS011;63338;39.544;2.596;2023-05-29T06:47:41;11.60;;;3.40;;
74808;SDS011;63338;39.544;2.596;2023-05-29T06:50:08;11.75;;;3.58;;
74808;SDS011;63338;39.544;2.596;2023-05-29T06:52:34;11.25;;;3.90;;
74808;SDS011;63338;39.544;2.596;2023-05-29T06:55:01;16.63;;;4.07;;
74808;SDS011;63338;39.544;2.596;2023-05-29T06:57:30;11.68;;;3.67;;
74808;SDS011;63338;39.544;2.596;2023-05-29T06:59:56;16.48;;;4.18;;
74808;SDS011;63338;39.544;2.596;2023-05-29T07:02:23;11.13;;;4.20;;
74808;SDS011;63338;39.544;2.596;2023-05-29T07:04:49;12.63;;;3.85;;
74808;SDS011;63338;39.544;2.596;2023-05-29T07:07:15;12.30;;;3.78;;
74808;SDS011;63338;39.544;2.596;2023-05-29T07:09:42;12.75;;;3.92;;
74808;SDS011;63338;39.544;2.596;2023-05-29T07:12:08;13.90;;;4.65;;
74808;SDS011;63338;39.544;2.596;2023-05-29T07:14:34;17.52;;;4.10;;
74808;SDS011;63338;39.544;2.596;2023-05-29T07:17:00;17.05;;;4.40;;
74808;SDS011;63338;39.544;2.596;2023-05-29T07:19:26;14.55;;;4.45;;
74808;SDS011;63338;39.544;2.596;2023-05-29T07:21:53;13.63;;;4.38;;
74808;SDS011;63338;39.544;2.596;2023-05-29T07:24:19;15.38;;;4.72;;
74808;SDS011;63338;39.544;2.596;2023-05-29T07:26:49;13.70;;;4.43;;
74808;SDS011;63338;39.544;2.596;2023-05-29T07:29:15;12.05;;;4.53;;
74808;SDS011;63338;39.544;2.596;2023-05-29T07:31:45;12.25;;;4.32;;
74808;SDS011;63338;39.544;2.596;2023-05-29T07:34:12;13.68;;;5.07;;
74808;SDS011;63338;39.544;2.596;2023-05-29T07:36:44;13.50;;;4.68;;
74808;SDS011;63338;39.544;2.596;2023-05-29T07:39:32;13.95;;;4.80;;
74808;SDS011;63338;39.544;2.596;2023-05-29T07:42:00;11.32;;;4.95;;
74808;SDS011;63338;39.544;2.596;2023-05-29T07:44:26;15.90;;;4.93;;
74808;SDS011;63338;39.544;2.596;2023-05-29T07:46:53;16.15;;;4.53;;
74808;SDS011;63338;39.544;2.596;2023-05-29T07:49:19;14.93;;;5.05;;
74808;SDS011;63338;39.544;2.596;2023-05-29T07:51:45;17.17;;;4.97;;
74808;SDS011;63338;39.544;2.596;2023-05-29T07:54:11;15.05;;;4.40;;
74808;SDS011;63338;39.544;2.596;2023-05-29T07:56:38;13.00;;;4.57;;
74808;SDS011;63338;39.544;2.596;2023-05-29T07:59:05;17.05;;;4.55;;
74808;SDS011;63338;39.544;2.596;2023-05-29T08:01:34;13.02;;;4.65;;
74808;SDS011;63338;39.544;2.596;2023-05-29T08:04:00;14.00;;;4.60;;
74808;SDS011;63338;39.544;2.596;2023-05-29T08:06:27;10.15;;;4.72;;
74808;SDS011;63338;39.544;2.596;2023-05-29T08:08:52;12.40;;;4.78;;
74808;SDS011;63338;39.544;2.596;2023-05-29T08:11:19;15.68;;;4.30;;
74808;SDS011;63338;39.544;2.596;2023-05-29T08:13:46;10.93;;;4.45;;
74808;SDS011;63338;39.544;2.596;2023-05-29T08:16:15;10.27;;;3.83;;
74808;SDS011;63338;39.544;2.596;2023-05-29T08:18:42;11.93;;;4.20;;
74808;SDS011;63338;39.544;2.596;2023-05-29T08:21:08;14.05;;;4.22;;
74808;SDS011;63338;39.544;2.596;2023-05-29T08:23:35;11.57;;;4.00;;
74808;SDS011;63338;39.544;2.596;2023-05-29T08:26:05;10.68;;;3.60;;
74808;SDS011;63338;39.544;2.596;2023-05-29T08:28:33;12.95;;;3.88;;
74808;SDS011;63338;39.544;2.596;2023-05-29T08:31:01;10.02;;;3.60;;
74808;SDS011;63338;39.544;2.596;2023-05-29T08:33:28;11.80;;;3.63;;
74808;SDS011;63338;39.544;2.596;2023-05-29T08:35:56;12.40;;;3.90;;
74808;SDS011;63338;39.544;2.596;2023-05-29T08:38:23;11.85;;;3.65;;
74808;SDS011;63338;39.544;2.596;2023-05-29T08:40:51;13.32;;;4.13;;
74808;SDS011;63338;39.544;2.596;2023-05-29T08:43:23;10.55;;;4.47;;
74808;SDS011;63338;39.544;2.596;2023-05-29T08:45:54;11.93;;;3.83;;
74808;SDS011;63338;39.544;2.596;2023-05-29T08:48:22;16.70;;;4.38;;
74808;SDS011;63338;39.544;2.596;2023-05-29T08:50:52;12.98;;;4.22;;
74808;SDS011;63338;39.544;2.596;2023-05-29T08:53:22;11.80;;;4.30;;
74808;SDS011;63338;39.544;2.596;2023-05-29T08:55:49;12.45;;;3.83;;
74808;SDS011;63338;39.544;2.596;2023-05-29T08:58:17;11.57;;;4.72;;
74808;SDS011;63338;39.544;2.596;2023-05-29T09:00:47;11.85;;;3.58;;
74808;SDS011;63338;39.544;2.596;2023-05-29T09:03:14;11.07;;;3.78;;
74808;SDS011;63338;39.544;2.596;2023-05-29T09:05:41;11.65;;;3.70;;
74808;SDS011;63338;39.544;2.596;2023-05-29T09:08:08;11.38;;;3.47;;
74808;SDS011;63338;39.544;2.596;2023-05-29T09:10:35;14.63;;;3.42;;
74808;SDS011;63338;39.544;2.596;2023-05-29T09:13:01;12.07;;;3.67;;
74808;SDS011;63338;39.544;2.596;2023-05-29T09:15:40;9.07;;;3.67;;
74808;SDS011;63338;39.544;2.596;2023-05-29T09:18:08;14.45;;;4.28;;
74808;SDS011;63338;39.544;2.596;2023-05-29T09:20:34;12.10;;;3.95;;
74808;SDS011;63338;39.544;2.596;2023-05-29T09:25:32;13.38;;;4.38;;
74808;SDS011;63338;39.544;2.596;2023-05-29T09:28:04;8.93;;;3.70;;
74808;SDS011;63338;39.544;2.596;2023-05-29T09:33:02;10.30;;;3.30;;
74808;SDS011;63338;39.544;2.596;2023-05-29T09:35:33;12.00;;;3.22;;
74808;SDS011;63338;39.544;2.596;2023-05-29T09:38:08;10.35;;;2.90;;
74808;SDS011;63338;39.544;2.596;2023-05-29T09:40:36;9.45;;;3.63;;
74808;SDS011;63338;39.544;2.596;2023-05-29T09:43:10;11.85;;;3.03;;
74808;SDS011;63338;39.544;2.596;2023-05-29T09:45:45;8.57;;;3.33;;
74808;SDS011;63338;39.544;2.596;2023-05-29T09:48:14;12.15;;;3.58;;
74808;SDS011;63338;39.544;2.596;2023-05-29T09:50:47;11.43;;;3.42;;
74808;SDS011;63338;39.544;2.596;2023-05-29T09:53:17;8.68;;;3.00;;
74808;SDS011;63338;39.544;2.596;2023-05-29T09:55:47;11.48;;;3.65;;
74808;SDS011;63338;39.544;2.596;2023-05-29T09:58:15;10.02;;;3.72;;
74808;SDS011;63338;39.544;2.596;2023-05-29T10:00:43;14.70;;;4.30;;
74808;SDS011;63338;39.544;2.596;2023-05-29T10:03:13;10.38;;;3.33;;
74808;SDS011;63338;39.544;2.596;2023-05-29T10:05:49;12.68;;;3.75;;
74808;SDS011;63338;39.544;2.596;2023-05-29T10:08:19;13.48;;;3.45;;
74808;SDS011;63338;39.544;2.596;2023-05-29T10:10:47;11.93;;;3.63;;
74808;SDS011;63338;39.544;2.596;2023-05-29T10:13:21;12.68;;;4.07;;
74808;SDS011;63338;39.544;2.596;2023-05-29T10:15:50;12.27;;;4.65;;
74808;SDS011;63338;39.544;2.596;2023-05-29T10:18:33;11.35;;;4.45;;
74808;SDS011;63338;39.544;2.596;2023-05-29T10:21:07;12.10;;;4.63;;
74808;SDS011;63338;39.544;2.596;2023-05-29T10:23:37;16.10;;;4.65;;
74808;SDS011;63338;39.544;2.596;2023-05-29T10:26:13;10.25;;;4.10;;
74808;SDS011;63338;39.544;2.596;2023-05-29T10:28:52;13.68;;;4.03;;
74808;SDS011;63338;39.544;2.596;2023-05-29T10:31:30;10.85;;;3.30;;
74808;SDS011;63338;39.544;2.596;2023-05-29T10:40:08;11.77;;;2.53;;
74808;SDS011;63338;39.544;2.596;2023-05-29T10:45:57;7.22;;;1.90;;
74808;SDS011;63338;39.544;2.596;2023-05-29T10:50:42;10.88;;;1.90;;
74808;SDS011;63338;39.544;2.596;2023-05-29T10:53:13;11.85;;;1.60;;
74808;SDS011;63338;39.544;2.596;2023-05-29T10:55:45;12.38;;;1.80;;
74808;SDS011;63338;39.544;2.596;2023-05-29T10:58:17;7.68;;;1.52;;
74808;SDS011;63338;39.544;2.596;2023-05-29T11:00:45;7.75;;;1.40;;
74808;SDS011;63338;39.544;2.596;2023-05-29T11:03:25;9.07;;;1.30;;
74808;SDS011;63338;39.544;2.596;2023-05-29T11:06:04;7.40;;;1.50;;
74808;SDS011;63338;39.544;2.596;2023-05-29T11:08:43;10.75;;;1.88;;
74808;SDS011;63338;39.544;2.596;2023-05-29T11:11:14;9.15;;;1.95;;
74808;SDS011;63338;39.544;2.596;2023-05-29T11:14:05;10.70;;;1.80;;
74808;SDS011;63338;39.544;2.596;2023-05-29T11:18:59;9.45;;;1.45;;
74808;SDS011;63338;39.544;2.596;2023-05-29T11:24:21;8.50;;;1.70;;
74808;SDS011;63338;39.544;2.596;2023-05-29T11:26:47;7.53;;;1.65;;
74808;SDS011;63338;39.544;2.596;2023-05-29T11:29:14;8.15;;;1.40;;
74808;SDS011;63338;39.544;2.596;2023-05-29T11:31:41;12.07;;;2.15;;
74808;SDS011;63338;39.544;2.596;2023-05-29T11:34:13;9.07;;;1.80;;
74808;SDS011;63338;39.544;2.596;2023-05-29T11:36:40;7.45;;;1.75;;
74808;SDS011;63338;39.544;2.596;2023-05-29T11:39:08;11.07;;;2.25;;
74808;SDS011;63338;39.544;2.596;2023-05-29T11:41:44;8.38;;;1.80;;
74808;SDS011;63338;39.544;2.596;2023-05-29T11:44:28;13.30;;;2.67;;
74808;SDS011;63338;39.544;2.596;2023-05-29T11:47:01;10.38;;;2.25;;
74808;SDS011;63338;39.544;2.596;2023-05-29T11:49:31;12.13;;;2.25;;
74808;SDS011;63338;39.544;2.596;2023-05-29T11:52:09;10.23;;;1.73;;
74808;SDS011;63338;39.544;2.596;2023-05-29T11:57:02;13.38;;;2.35;;
74808;SDS011;63338;39.544;2.596;2023-05-29T11:59:32;9.15;;;2.00;;
74808;SDS011;63338;39.544;2.596;2023-05-29T12:01:59;12.43;;;2.22;;
74808;SDS011;63338;39.544;2.596;2023-05-29T12:04:28;8.20;;;1.73;;
74808;SDS011;63338;39.544;2.596;2023-05-29T12:06:55;16.08;;;2.35;;
74808;SDS011;63338;39.544;2.596;2023-05-29T12:09:24;9.95;;;2.33;;
74808;SDS011;63338;39.544;2.596;2023-05-29T12:11:51;13.40;;;2.78;;
74808;SDS011;63338;39.544;2.596;2023-05-29T12:14:18;8.73;;;1.75;;
74808;SDS011;63338;39.544;2.596;2023-05-29T12:16:45;11.30;;;2.20;;
74808;SDS011;63338;39.544;2.596;2023-05-29T12:19:12;11.38;;;2.17;;
74808;SDS011;63338;39.544;2.596;2023-05-29T12:21:41;11.88;;;2.15;;
74808;SDS011;63338;39.544;2.596;2023-05-29T12:24:08;12.90;;;2.28;;
74808;SDS011;63338;39.544;2.596;2023-05-29T12:26:35;9.18;;;2.22;;
74808;SDS011;63338;39.544;2.596;2023-05-29T12:29:02;6.95;;;2.28;;
74808;SDS011;63338;39.544;2.596;2023-05-29T12:31:31;10.88;;;3.20;;
74808;SDS011;63338;39.544;2.596;2023-05-29T12:34:24;11.90;;;2.63;;
74808;SDS011;63338;39.544;2.596;2023-05-29T12:36:51;10.40;;;3.17;;
74808;SDS011;63338;39.544;2.596;2023-05-29T12:39:19;10.63;;;2.92;;
74808;SDS011;63338;39.544;2.596;2023-05-29T12:41:45;14.73;;;2.75;;
74808;SDS011;63338;39.544;2.596;2023-05-29T12:44:11;13.18;;;2.95;;
74808;SDS011;63338;39.544;2.596;2023-05-29T12:46:41;9.90;;;2.63;;
74808;SDS011;63338;39.544;2.596;2023-05-29T12:49:18;9.07;;;3.22;;
74808;SDS011;63338;39.544;2.596;2023-05-29T12:51:51;11.98;;;2.92;;
74808;SDS011;63338;39.544;2.596;2023-05-29T12:54:19;11.15;;;2.72;;
74808;SDS011;63338;39.544;2.596;2023-05-29T12:56:46;21.63;;;3.55;;
74808;SDS011;63338;39.544;2.596;2023-05-29T12:59:12;18.75;;;3.50;;
74808;SDS011;63338;39.544;2.596;2023-05-29T13:01:38;13.05;;;3.10;;
74808;SDS011;63338;39.544;2.596;2023-05-29T13:04:08;14.20;;;3.75;;
74808;SDS011;63338;39.544;2.596;2023-05-29T13:06:34;13.60;;;3.35;;
74808;SDS011;63338;39.544;2.596;2023-05-29T13:09:02;13.55;;;3.25;;
74808;SDS011;63338;39.544;2.596;2023-05-29T13:11:36;20.98;;;3.38;;
74808;SDS011;63338;39.544;2.596;2023-05-29T13:14:02;15.75;;;3.70;;
74808;SDS011;63338;39.544;2.596;2023-05-29T13:16:28;14.45;;;3.53;;
74808;SDS011;63338;39.544;2.596;2023-05-29T13:19:13;21.27;;;4.65;;
74808;SDS011;63338;39.544;2.596;2023-05-29T13:24:15;15.25;;;4.45;;
74808;SDS011;63338;39.544;2.596;2023-05-29T13:26:41;13.40;;;3.72;;
74808;SDS011;63338;39.544;2.596;2023-05-29T13:29:10;21.33;;;4.50;;
74808;SDS011;63338;39.544;2.596;2023-05-29T13:31:39;14.60;;;4.07;;
74808;SDS011;63338;39.544;2.596;2023-05-29T13:34:09;20.58;;;5.00;;
74808;SDS011;63338;39.544;2.596;2023-05-29T13:36:36;19.85;;;4.50;;
74808;SDS011;63338;39.544;2.596;2023-05-29T13:39:04;21.77;;;4.80;;
74808;SDS011;63338;39.544;2.596;2023-05-29T13:41:34;16.65;;;4.28;;
74808;SDS011;63338;39.544;2.596;2023-05-29T13:44:00;24.92;;;4.90;;
74808;SDS011;63338;39.544;2.596;2023-05-29T13:46:26;19.10;;;4.10;;
74808;SDS011;63338;39.544;2.596;2023-05-29T13:48:53;18.27;;;5.07;;
74808;SDS011;63338;39.544;2.596;2023-05-29T13:51:19;15.10;;;4.65;;
74808;SDS011;63338;39.544;2.596;2023-05-29T13:53:46;22.83;;;5.68;;
74808;SDS011;63338;39.544;2.596;2023-05-29T13:56:12;16.45;;;5.53;;
74808;SDS011;63338;39.544;2.596;2023-05-29T13:58:40;13.27;;;4.88;;
74808;SDS011;63338;39.544;2.596;2023-05-29T14:01:07;23.00;;;6.75;;
74808;SDS011;63338;39.544;2.596;2023-05-29T14:03:36;17.90;;;6.30;;
74808;SDS011;63338;39.544;2.596;2023-05-29T14:06:04;19.60;;;6.28;;
74808;SDS011;63338;39.544;2.596;2023-05-29T14:08:31;17.10;;;6.10;;
74808;SDS011;63338;39.544;2.596;2023-05-29T14:11:31;30.27;;;7.72;;
74808;SDS011;63338;39.544;2.596;2023-05-29T14:14:01;24.27;;;6.80;;
74808;SDS011;63338;39.544;2.596;2023-05-29T14:16:30;19.17;;;6.82;;
74808;SDS011;63338;39.544;2.596;2023-05-29T14:18:56;21.35;;;6.50;;
74808;SDS011;63338;39.544;2.596;2023-05-29T14:21:22;15.65;;;6.15;;
74808;SDS011;63338;39.544;2.596;2023-05-29T14:23:49;17.63;;;5.97;;
74808;SDS011;63338;39.544;2.596;2023-05-29T14:26:18;20.27;;;6.50;;
74808;SDS011;63338;39.544;2.596;2023-05-29T14:29:05;19.77;;;5.75;;
74808;SDS011;63338;39.544;2.596;2023-05-29T14:31:34;18.50;;;6.00;;
74808;SDS011;63338;39.544;2.596;2023-05-29T14:34:04;19.10;;;6.13;;
74808;SDS011;63338;39.544;2.596;2023-05-29T14:36:30;25.73;;;6.40;;
74808;SDS011;63338;39.544;2.596;2023-05-29T14:38:57;17.92;;;6.35;;
74808;SDS011;63338;39.544;2.596;2023-05-29T14:41:23;17.67;;;6.60;;
74808;SDS011;63338;39.544;2.596;2023-05-29T14:43:50;21.13;;;6.55;;
74808;SDS011;63338;39.544;2.596;2023-05-29T14:46:20;20.45;;;6.88;;
74808;SDS011;63338;39.544;2.596;2023-05-29T14:48:46;18.88;;;6.90;;
74808;SDS011;63338;39.544;2.596;2023-05-29T14:51:14;17.75;;;6.85;;
74808;SDS011;63338;39.544;2.596;2023-05-29T14:53:41;19.42;;;6.60;;
74808;SDS011;63338;39.544;2.596;2023-05-29T14:56:07;14.00;;;6.40;;
74808;SDS011;63338;39.544;2.596;2023-05-29T14:58:33;19.38;;;6.72;;
74808;SDS011;63338;39.544;2.596;2023-05-29T15:01:08;12.45;;;6.07;;
74808;SDS011;63338;39.544;2.596;2023-05-29T15:03:34;18.23;;;6.43;;
74808;SDS011;63338;39.544;2.596;2023-05-29T15:06:01;16.23;;;6.55;;
74808;SDS011;63338;39.544;2.596;2023-05-29T15:08:34;15.48;;;7.15;;
74808;SDS011;63338;39.544;2.596;2023-05-29T15:11:03;17.35;;;6.72;;
74808;SDS011;63338;39.544;2.596;2023-05-29T15:13:30;15.88;;;6.03;;
74808;SDS011;63338;39.544;2.596;2023-05-29T15:15:56;19.55;;;6.53;;
74808;SDS011;63338;39.544;2.596;2023-05-29T15:18:25;12.93;;;6.13;;
74808;SDS011;63338;39.544;2.596;2023-05-29T15:20:52;14.27;;;6.93;;
74808;SDS011;63338;39.544;2.596;2023-05-29T15:23:18;13.55;;;4.97;;